Time;durP1;ratioP1;P1;durP2;ratioP2;P2;SDS_P1;SDS_P2;PMS_P1;PMS_P2;Temp;Humidity;BMP_temperature;BMP_pressure;BME280_temperature;BME280_humidity;BME280_pressure;Samples;Min_cycle;Max_cycle;Signal;HPM_P1;HPM_P2
2022/04/26 03:36:33;;;;;;;;;;;;;;;15.97;100.00;98671.84;5060366;28;19931;-38
2022/04/26 03:38:58;;;;;;;;;;;;;;;15.46;100.00;98669.56;5059408;28;20344;-38
2022/04/26 03:41:24;;;;;;;;;;;;;;;15.32;100.00;98679.06;5059755;28;19958;-38
2022/04/26 03:43:49;;;;;;;;;;;;;;;15.79;100.00;98672.94;5061604;28;19917;-38
2022/04/26 03:46:14;;;;;;;;;;;;;;;15.77;100.00;98680.81;5059266;28;19973;-38
2022/04/26 03:48:39;;;;;;;;;;;;;;;15.66;100.00;98677.97;5063667;28;21156;-38
2022/04/26 03:51:05;;;;;;;;;;;;;;;15.82;100.00;98678.75;5060341;28;19977;-38
2022/04/26 03:53:30;;;;;;;;;;;;;;;15.81;100.00;98674.50;5060211;28;20015;-38
2022/04/26 03:55:55;;;;;;;;;;;;;;;15.82;100.00;98673.56;5061767;28;20614;-38
2022/04/26 03:58:21;;;;;;;;;;;;;;;15.94;100.00;98671.19;5061594;28;19956;-38
2022/04/26 04:00:46;;;;;;;;;;;;;;;15.75;100.00;98672.25;5063855;28;19955;-38
2022/04/26 04:03:11;;;;;;;;;;;;;;;15.71;100.00;98678.56;5062008;28;20857;-38
2022/04/26 04:05:36;;;;;;;;;;;;;;;15.82;100.00;98673.56;5063736;28;19916;-39
2022/04/26 04:08:02;;;;;;;;;;;;;;;15.91;100.00;98676.56;5064170;28;19916;-38
2022/04/26 04:10:27;;;;;;;;;;;;;;;15.78;100.00;98682.50;5065179;28;19959;-38
2022/04/26 04:12:53;;;;;;;;;;;;;;;15.30;100.00;98697.28;5062959;28;19916;-38
2022/04/26 04:15:18;;;;;;;;;;;;;;;15.49;100.00;98697.13;5061615;28;19946;-38
2022/04/26 04:17:43;;;;;;;;;;;;;;;15.11;100.00;98696.66;5061013;28;19920;-38
2022/04/26 04:20:09;;;;;;;;;;;;;;;15.48;100.00;98701.44;5059763;28;19932;-38
2022/04/26 04:22:34;;;;;;;;;;;;;;;15.70;100.00;98700.22;5059720;28;20244;-38
2022/04/26 04:24:59;;;;;;;;;;;;;;;15.79;100.00;98691.94;5064437;28;19916;-38
2022/04/26 04:27:24;;;;;;;;;;;;;;;16.00;100.00;98702.81;5065733;28;20248;-38
2022/04/26 04:29:51;;;;;;;;;;;;;;;15.77;100.00;98709.38;5060982;28;19960;-38
2022/04/26 04:32:17;;;;;;;;;;;;;;;15.70;100.00;98702.81;5061582;28;19916;-38
2022/04/26 04:34:42;;;;;;;;;;;;;;;15.88;100.00;98709.56;5062915;28;20281;-38
2022/04/26 04:37:08;;;;;;;;;;;;;;;14.02;100.00;98709.25;5062810;28;20681;-38
2022/04/26 04:39:33;;;;;;;;;;;;;;;13.79;100.00;98714.75;5061822;28;20495;-38
2022/04/26 04:41:59;;;;;;;;;;;;;;;13.95;100.00;98714.81;5060022;28;19931;-38
2022/04/26 04:44:25;;;;;;;;;;;;;;;14.48;100.00;98708.63;5063577;28;20048;-38
2022/04/26 04:46:51;;;;;;;;;;;;;;;15.14;100.00;98712.03;5059072;28;19920;-38
2022/04/26 04:49:16;;;;;;;;;;;;;;;15.47;100.00;98720.53;5059464;28;19919;-38
2022/04/26 04:51:41;;;;;;;;;;;;;;;15.44;100.00;98714.69;5060155;28;20358;-38
2022/04/26 04:54:07;;;;;;;;;;;;;;;15.56;100.00;98718.38;5062941;28;20978;-39
2022/04/26 04:56:32;;;;;;;;;;;;;;;15.13;100.00;98725.94;5060167;28;19916;-38
2022/04/26 04:58:57;;;;;;;;;;;;;;;15.53;100.00;98724.56;5063216;28;19917;-38
2022/04/26 05:01:22;;;;;;;;;;;;;;;15.74;100.00;98725.13;5062401;28;20517;-38
2022/04/26 05:03:47;;;;;;;;;;;;;;;15.89;100.00;98729.41;5062507;28;20515;-38
2022/04/26 05:06:16;;;;;;;;;;;;;;;15.72;100.00;98734.75;5062262;28;19916;-38
2022/04/26 05:08:45;;;;;;;;;;;;;;;15.74;100.00;98732.09;5061197;28;19976;-38
2022/04/26 05:11:10;;;;;;;;;;;;;;;15.83;100.00;98742.78;5060462;28;19920;-38
2022/04/26 05:13:35;;;;;;;;;;;;;;;16.01;100.00;98740.00;5063009;28;19923;-38
2022/04/26 05:16:00;;;;;;;;;;;;;;;15.72;100.00;98750.34;5060813;28;19959;-38
2022/04/26 05:18:27;;;;;;;;;;;;;;;15.68;100.00;98747.03;5061357;28;20011;-38
2022/04/26 05:20:52;;;;;;;;;;;;;;;15.65;100.00;98747.22;5063286;28;19923;-38
2022/04/26 05:26:01;;;;;;;;;;;;;;;15.67;100.00;98747.16;5064032;28;19923;-39
2022/04/26 05:28:26;;;;;;;;;;;;;;;15.17;100.00;98743.84;5064941;28;19917;-38
2022/04/26 05:30:52;;;;;;;;;;;;;;;13.90;100.00;98759.06;5068446;28;20316;-38
2022/04/26 05:33:17;;;;;;;;;;;;;;;13.75;100.00;98760.66;5065030;28;19952;-38
2022/04/26 05:35:43;;;;;;;;;;;;;;;14.56;100.00;98768.69;5067410;28;19989;-38
2022/04/26 05:38:08;;;;;;;;;;;;;;;14.46;100.00;98761.44;5067052;28;19920;-38
2022/04/26 05:40:33;;;;;;;;;;;;;;;13.56;100.00;98771.06;5066849;28;19917;-38
2022/04/26 05:42:58;;;;;;;;;;;;;;;13.44;100.00;98766.47;5067091;28;20038;-38
2022/04/26 05:45:25;;;;;;;;;;;;;;;14.07;100.00;98771.19;5066229;28;19968;-38
2022/04/26 05:47:50;;;;;;;;;;;;;;;14.35;100.00;98780.97;5067807;28;20379;-38
2022/04/26 05:50:15;;;;;;;;;;;;;;;14.17;100.00;98782.75;5067288;28;19916;-38
2022/04/26 05:52:40;;;;;;;;;;;;;;;14.66;100.00;98773.41;5068471;28;19917;-38
2022/04/26 05:55:07;;;;;;;;;;;;;;;13.86;100.00;98773.06;5066407;28;20746;-38
2022/04/26 05:57:39;;;;;;;;;;;;;;;13.86;100.00;98769.66;5066983;28;20732;-38
2022/04/26 06:00:07;;;;;;;;;;;;;;;13.98;100.00;98771.63;5066555;28;20951;-38
2022/04/26 06:02:33;;;;;;;;;;;;;;;14.14;100.00;98772.56;5063812;28;19920;-38
2022/04/26 06:04:58;;;;;;;;;;;;;;;14.13;100.00;98770.88;5064919;28;20814;-39
2022/04/26 06:07:23;;;;;;;;;;;;;;;13.29;100.00;98772.38;5065907;28;19919;-38
2022/04/26 06:09:53;;;;;;;;;;;;;;;13.93;100.00;98771.00;5067890;28;19973;-38
2022/04/26 06:12:18;;;;;;;;;;;;;;;14.98;100.00;98767.34;5066063;28;20573;-38
2022/04/26 06:14:43;;;;;;;;;;;;;;;13.85;100.00;98768.00;5067305;28;19920;-38
2022/04/26 06:17:09;;;;;;;;;;;;;;;13.09;100.00;98765.50;5062466;28;19959;-38
2022/04/26 06:19:34;;;;;;;;;;;;;;;13.55;100.00;98766.81;5064805;28;19920;-38
2022/04/26 06:21:59;;;;;;;;;;;;;;;14.30;100.00;98775.22;5062928;28;19912;-38
2022/04/26 06:24:25;;;;;;;;;;;;;;;13.95;100.00;98792.50;5065650;28;20297;-37
2022/04/26 06:26:51;;;;;;;;;;;;;;;14.35;100.00;98793.09;5061299;28;19916;-38
2022/04/26 06:29:16;;;;;;;;;;;;;;;14.22;100.00;98795.47;5067209;28;20157;-37
2022/04/26 06:31:41;;;;;;;;;;;;;;;12.84;100.00;98787.31;5064093;28;19916;-38
2022/04/26 06:34:06;;;;;;;;;;;;;;;12.76;100.00;98787.63;5064501;28;19920;-37
2022/04/26 06:36:31;;;;;;;;;;;;;;;13.37;100.00;98781.44;5057583;28;19916;-38
2022/04/26 06:38:57;;;;;;;;;;;;;;;13.23;100.00;98782.94;5059356;28;19927;-38
2022/04/26 06:41:22;;;;;;;;;;;;;;;12.97;100.00;98778.06;5063958;28;19917;-38
2022/04/26 06:43:47;;;;;;;;;;;;;;;12.04;100.00;98775.25;5061895;28;20639;-38
2022/04/26 06:46:12;;;;;;;;;;;;;;;12.11;100.00;98774.09;5060442;28;20011;-38
2022/04/26 06:48:38;;;;;;;;;;;;;;;12.20;100.00;98782.31;5064035;28;20024;-37
2022/04/26 06:51:03;;;;;;;;;;;;;;;12.77;100.00;98785.88;5062350;28;19916;-37
2022/04/26 06:53:28;;;;;;;;;;;;;;;13.33;100.00;98800.59;5062045;28;19990;-37
2022/04/26 06:55:53;;;;;;;;;;;;;;;13.75;100.00;98802.09;5063628;28;19962;-38
2022/04/26 06:58:19;;;;;;;;;;;;;;;13.77;100.00;98807.16;5063429;28;19919;-38
2022/04/26 07:00:46;;;;;;;;;;;;;;;13.53;100.00;98804.00;5057484;28;19959;-38
2022/04/26 07:03:11;;;;;;;;;;;;;;;13.07;100.00;98804.34;5058989;28;19923;-38
2022/04/26 07:05:37;;;;;;;;;;;;;;;12.85;100.00;98809.63;5064766;28;19917;-37
2022/04/26 07:08:02;;;;;;;;;;;;;;;13.05;100.00;98815.69;5064926;28;19919;-38
2022/04/26 07:10:29;;;;;;;;;;;;;;;14.75;100.00;98817.00;5061940;28;19916;-38
2022/04/26 07:12:54;;;;;;;;;;;;;;;13.33;100.00;98810.94;5058778;28;19920;-38
2022/04/26 07:15:19;;;;;;;;;;;;;;;12.78;100.00;98805.66;5060131;28;19974;-38
2022/04/26 07:17:44;;;;;;;;;;;;;;;14.01;100.00;98818.09;5062978;28;20007;-37
2022/04/26 07:20:10;;;;;;;;;;;;;;;15.59;100.00;98816.81;5062077;28;19939;-38
2022/04/26 07:22:36;;;;;;;;;;;;;;;15.59;100.00;98809.84;5061394;28;19916;-38
2022/04/26 07:25:02;;;;;;;;;;;;;;;13.53;100.00;98809.19;5059725;28;19923;-38
2022/04/26 07:27:27;;;;;;;;;;;;;;;13.96;100.00;98820.06;5064044;28;20332;-37
2022/04/26 07:29:52;;;;;;;;;;;;;;;14.35;100.00;98816.41;5061685;28;19920;-37
2022/04/26 07:32:18;;;;;;;;;;;;;;;14.30;100.00;98815.78;5062142;28;19916;-38
2022/04/26 07:34:45;;;;;;;;;;;;;;;15.39;100.00;98816.13;5062285;28;19920;-38
2022/04/26 07:37:10;;;;;;;;;;;;;;;15.02;100.00;98823.31;5062825;28;19916;-38
2022/04/26 07:39:36;;;;;;;;;;;;;;;15.09;100.00;98820.41;5060594;28;19927;-37
2022/04/26 07:42:02;;;;;;;;;;;;;;;15.08;100.00;98827.34;5058457;28;19938;-38
2022/04/26 07:44:27;;;;;;;;;;;;;;;16.23;100.00;98833.13;5064197;28;19939;-38
2022/04/26 07:46:53;;;;;;;;;;;;;;;17.77;100.00;98830.69;5060955;28;20713;-38
2022/04/26 07:49:20;;;;;;;;;;;;;;;16.24;100.00;98838.25;5061132;28;19964;-38
2022/04/26 07:51:46;;;;;;;;;;;;;;;17.45;100.00;98835.34;5058740;28;19912;-38
2022/04/26 07:54:11;;;;;;;;;;;;;;;17.90;100.00;98841.19;5060234;28;19951;-38
2022/04/26 07:56:37;;;;;;;;;;;;;;;17.27;100.00;98839.91;5058182;28;19920;-37
2022/04/26 07:59:03;;;;;;;;;;;;;;;16.99;100.00;98848.59;5059927;28;19916;-38
2022/04/26 08:01:29;;;;;;;;;;;;;;;18.44;100.00;98844.63;5060042;28;19926;-37
2022/04/26 08:03:54;;;;;;;;;;;;;;;18.45;100.00;98843.69;5058349;28;19916;-37
2022/04/26 08:06:20;;;;;;;;;;;;;;;17.73;100.00;98844.00;5063340;28;19970;-37
2022/04/26 08:08:45;;;;;;;;;;;;;;;18.06;100.00;98850.59;5064858;28;19948;-37
2022/04/26 08:11:12;;;;;;;;;;;;;;;17.61;100.00;98844.75;5064760;28;19924;-37
2022/04/26 08:13:39;;;;;;;;;;;;;;;18.38;100.00;98851.94;5063346;28;20861;-37
2022/04/26 08:16:05;;;;;;;;;;;;;;;17.01;100.00;98857.13;5062742;28;19913;-37
2022/04/26 08:18:30;;;;;;;;;;;;;;;16.87;100.00;98864.94;5061645;28;19917;-36
2022/04/26 08:20:55;;;;;;;;;;;;;;;16.08;100.00;98871.25;5062586;28;19916;-36
2022/04/26 08:23:21;;;;;;;;;;;;;;;15.04;100.00;98883.72;5064013;28;19920;-36
2022/04/26 08:28:30;;;;;;;;;;;;;;;15.67;100.00;98889.94;5060711;28;19962;-36
2022/04/26 08:30:56;;;;;;;;;;;;;;;16.53;100.00;98887.69;5060844;28;20006;-36
2022/04/26 08:33:21;;;;;;;;;;;;;;;17.09;100.00;98880.91;5061078;28;19985;-36
2022/04/26 08:35:46;;;;;;;;;;;;;;;15.92;100.00;98892.03;5061887;28;20106;-37
2022/04/26 08:38:11;;;;;;;;;;;;;;;15.36;100.00;98888.97;5063439;28;19966;-36
2022/04/26 08:40:37;;;;;;;;;;;;;;;15.57;100.00;98896.53;5062858;28;19927;-36
2022/04/26 08:43:02;;;;;;;;;;;;;;;16.74;100.00;98901.22;5061678;28;19917;-36
2022/04/26 08:45:27;;;;;;;;;;;;;;;17.20;100.00;98897.66;5045355;28;20292;-37
2022/04/26 08:53:21;;;;;;;;;;;;;;;18.08;100.00;98895.63;5062257;28;19966;-36
2022/04/26 08:55:48;;;;;;;;;;;;;;;18.38;100.00;98904.09;5061114;28;20057;-37
2022/04/26 08:58:14;;;;;;;;;;;;;;;17.57;100.00;98901.44;5064504;28;19916;-36
2022/04/26 09:00:40;;;;;;;;;;;;;;;17.81;100.00;98903.41;5062197;28;19923;-36
2022/04/26 09:03:07;;;;;;;;;;;;;;;17.58;100.00;98907.47;5063528;28;19994;-36
2022/04/26 09:05:33;;;;;;;;;;;;;;;16.73;100.00;98920.34;5067196;28;20527;-36
2022/04/26 09:07:58;;;;;;;;;;;;;;;16.00;100.00;98925.38;5068842;28;19912;-36
2022/04/26 09:10:24;;;;;;;;;;;;;;;17.29;100.00;98923.13;5064639;28;19916;-36
2022/04/26 09:13:09;;;;;;;;;;;;;;;17.77;100.00;98913.22;5067318;28;19962;-36
2022/04/26 09:15:38;;;;;;;;;;;;;;;16.73;100.00;98926.38;5067175;28;19920;-41
2022/04/26 09:18:24;;;;;;;;;;;;;;;18.31;100.00;98918.44;5060888;28;19975;-36
2022/04/26 09:20:57;;;;;;;;;;;;;;;18.86;100.00;98906.16;5066520;28;19940;-37
2022/04/26 09:23:23;;;;;;;;;;;;;;;18.67;100.00;98911.72;5066967;28;19940;-36
2022/04/26 09:25:51;;;;;;;;;;;;;;;19.25;100.00;98913.97;5068001;28;20337;-36
2022/04/26 09:28:23;;;;;;;;;;;;;;;18.88;100.00;98913.88;5067786;28;20678;-36
2022/04/26 09:30:49;;;;;;;;;;;;;;;19.11;100.00;98912.31;5064849;28;20334;-36
2022/04/26 09:33:47;;;;;;;;;;;;;;;18.08;100.00;98921.69;5065888;28;19916;-36
2022/04/26 09:36:13;;;;;;;;;;;;;;;18.64;100.00;98924.16;5064655;28;20343;-36
2022/04/26 09:38:39;;;;;;;;;;;;;;;18.68;100.00;98929.06;5065074;28;19927;-36
2022/04/26 09:41:07;;;;;;;;;;;;;;;18.75;100.00;98932.94;5066982;28;19916;-36
2022/04/26 09:43:33;;;;;;;;;;;;;;;19.21;100.00;98924.63;5066130;28;19916;-36
2022/04/26 09:45:58;;;;;;;;;;;;;;;17.69;100.00;98933.69;5066913;28;19939;-37
2022/04/26 09:48:24;;;;;;;;;;;;;;;17.39;100.00;98945.06;5065750;28;20297;-37
2022/04/26 09:50:49;;;;;;;;;;;;;;;19.96;100.00;98929.00;5064223;28;19913;-37
2022/04/26 09:53:14;;;;;;;;;;;;;;;20.35;100.00;98924.44;5065595;28;20262;-37
2022/04/26 09:55:41;;;;;;;;;;;;;;;19.35;100.00;98935.91;5064534;28;19931;-37
2022/04/26 09:58:06;;;;;;;;;;;;;;;18.08;100.00;98945.97;5067041;28;19925;-37
2022/04/26 10:00:32;;;;;;;;;;;;;;;18.13;100.00;98950.91;5066295;28;19916;-37
2022/04/26 10:02:57;;;;;;;;;;;;;;;18.52;100.00;98947.50;5061041;28;20030;-37
2022/04/26 10:05:23;;;;;;;;;;;;;;;19.53;100.00;98941.63;5066304;28;19916;-37
2022/04/26 10:07:49;;;;;;;;;;;;;;;17.36;100.00;98953.06;5063528;28;19999;-37
2022/04/26 10:10:14;;;;;;;;;;;;;;;19.29;100.00;98941.53;5064682;28;19916;-37
2022/04/26 10:12:39;;;;;;;;;;;;;;;19.38;100.00;98946.94;5065378;28;20553;-37
2022/04/26 10:15:05;;;;;;;;;;;;;;;18.51;100.00;98940.59;5064487;28;20137;-37
2022/04/26 10:17:32;;;;;;;;;;;;;;;17.78;100.00;98952.16;5058477;28;19995;-37
2022/04/26 10:19:58;;;;;;;;;;;;;;;19.78;100.00;98938.16;5062463;28;19924;-37
2022/04/26 10:22:43;;;;;;;;;;;;;;;21.08;100.00;98928.56;5062742;28;20013;-37
2022/04/26 10:25:09;;;;;;;;;;;;;;;19.84;100.00;98940.31;5063454;28;20328;-37
2022/04/26 10:27:35;;;;;;;;;;;;;;;20.01;100.00;98939.13;5062042;28;20696;-37
2022/04/26 10:30:00;;;;;;;;;;;;;;;20.33;100.00;98928.94;5061114;28;20007;-37
2022/04/26 10:32:29;;;;;;;;;;;;;;;19.56;100.00;98939.63;5060555;28;20459;-37
2022/04/26 10:34:55;;;;;;;;;;;;;;;19.08;100.00;98949.91;5064132;28;20764;-37
2022/04/26 10:37:20;;;;;;;;;;;;;;;20.37;100.00;98935.63;5063639;28;19950;-37
2022/04/26 10:39:48;;;;;;;;;;;;;;;18.99;100.00;98943.50;5064354;28;20023;-37
2022/04/26 10:42:14;;;;;;;;;;;;;;;19.96;96.26;98936.00;5065065;28;19916;-37
2022/04/26 10:44:40;;;;;;;;;;;;;;;20.35;95.02;98937.50;5063817;28;19923;-37
2022/04/26 10:47:06;;;;;;;;;;;;;;;21.61;88.58;98942.88;5065444;28;19916;-37
2022/04/26 10:49:31;;;;;;;;;;;;;;;19.73;99.22;98945.47;5062549;28;19996;-37
2022/04/26 10:51:57;;;;;;;;;;;;;;;18.96;100.00;98948.13;5065271;28;19962;-37
2022/04/26 10:54:41;;;;;;;;;;;;;;;20.50;97.69;98939.94;5062733;28;19973;-37
2022/04/26 10:57:06;;;;;;;;;;;;;;;18.83;100.00;98949.88;5062928;28;19976;-37
2022/04/26 10:59:31;;;;;;;;;;;;;;;20.53;100.00;98940.53;5062319;28;19916;-36
2022/04/26 11:01:57;;;;;;;;;;;;;;;20.86;94.49;98931.97;5060886;28;20389;-37
2022/04/26 11:04:22;;;;;;;;;;;;;;;20.46;87.61;98924.47;5044503;28;20433;-37
2022/04/26 11:06:48;;;;;;;;;;;;;;;20.35;94.18;98929.66;5063254;28;19939;-37
2022/04/26 11:09:14;;;;;;;;;;;;;;;21.89;92.10;98928.41;5065930;28;19916;-37
2022/04/26 11:11:46;;;;;;;;;;;;;;;20.14;98.18;98945.13;5061401;28;19916;-37
2022/04/26 11:14:11;;;;;;;;;;;;;;;19.66;97.07;98945.06;5064055;28;19927;-37
2022/04/26 11:16:36;;;;;;;;;;;;;;;19.81;96.74;98938.75;5066586;28;19924;-37
2022/04/26 11:19:01;;;;;;;;;;;;;;;21.69;90.31;98935.25;5059001;28;19912;-37
2022/04/26 11:21:27;;;;;;;;;;;;;;;21.55;84.44;98930.25;5065167;28;20205;-37
2022/04/26 11:29:34;;;;;;;;;;;;;;;21.72;87.27;98935.84;5065908;28;20015;-37
2022/04/26 11:32:00;;;;;;;;;;;;;;;20.57;88.27;98930.69;5060331;28;20011;-37
2022/04/26 11:34:40;;;;;;;;;;;;;;;23.41;83.06;98925.53;5061166;28;20567;-36
2022/04/26 11:37:07;;;;;;;;;;;;;;;23.77;76.79;98917.09;5064157;28;19923;-37
2022/04/26 11:39:38;;;;;;;;;;;;;;;22.22;85.47;98926.69;5062661;28;19978;-37
2022/04/26 11:42:04;;;;;;;;;;;;;;;21.63;86.96;98926.09;5061982;28;20626;-37
2022/04/26 11:44:29;;;;;;;;;;;;;;;22.06;87.47;98927.91;5055814;28;19920;-37
2022/04/26 11:46:59;;;;;;;;;;;;;;;22.33;87.92;98931.91;5055019;28;20548;-36
2022/04/26 11:49:40;;;;;;;;;;;;;;;19.10;100.00;98953.25;5060205;28;19960;-36
2022/04/26 11:52:05;;;;;;;;;;;;;;;18.50;100.00;98948.53;5061185;28;20672;-37
2022/04/26 11:54:34;;;;;;;;;;;;;;;18.45;100.00;98954.06;5064619;28;19924;-37
2022/04/26 11:56:59;;;;;;;;;;;;;;;18.65;100.00;98950.13;5059373;28;19924;-36
2022/04/26 11:59:25;;;;;;;;;;;;;;;19.66;100.00;98950.28;5062069;28;19973;-37
2022/04/26 12:01:51;;;;;;;;;;;;;;;19.15;100.00;98965.97;5064250;28;20007;-36
2022/04/26 12:04:17;;;;;;;;;;;;;;;18.69;100.00;98969.84;5061456;28;19916;-36
2022/04/26 12:06:42;;;;;;;;;;;;;;;20.67;100.00;98963.94;5063836;28;19928;-36
2022/04/26 12:09:09;;;;;;;;;;;;;;;19.50;100.00;98986.22;5061870;28;19917;-36
2022/04/26 12:11:36;;;;;;;;;;;;;;;19.42;100.00;98992.81;5059438;28;19920;-37
2022/04/26 12:14:03;;;;;;;;;;;;;;;20.10;100.00;98974.22;5059417;28;19924;-37
2022/04/26 12:16:28;;;;;;;;;;;;;;;20.85;100.00;98982.66;5053933;28;20050;-37
2022/04/26 12:18:55;;;;;;;;;;;;;;;20.80;100.00;98982.19;5056773;28;20392;-37
2022/04/26 12:21:21;;;;;;;;;;;;;;;19.81;100.00;98992.81;5051500;28;19931;-37
2022/04/26 12:23:46;;;;;;;;;;;;;;;19.63;100.00;98977.44;5053039;28;19928;-37
2022/04/26 12:26:13;;;;;;;;;;;;;;;20.33;100.00;98981.25;5035007;28;19967;-37
2022/04/26 12:28:48;;;;;;;;;;;;;;;19.20;100.00;98996.06;5052116;28;19920;-37
2022/04/26 12:31:25;;;;;;;;;;;;;;;18.77;100.00;98987.63;5054276;28;19924;-37
2022/04/26 12:33:50;;;;;;;;;;;;;;;18.56;100.00;98987.25;5052912;28;20790;-37
2022/04/26 12:36:16;;;;;;;;;;;;;;;19.79;100.00;98977.22;5049063;28;19920;-37
2022/04/26 12:38:47;;;;;;;;;;;;;;;20.44;100.00;98976.06;5055397;28;20686;-37
2022/04/26 12:41:13;;;;;;;;;;;;;;;20.91;100.00;98972.69;5059354;28;20680;-37
2022/04/26 12:43:38;;;;;;;;;;;;;;;21.27;100.00;98967.25;5060797;28;19920;-37
2022/04/26 12:46:04;;;;;;;;;;;;;;;21.23;100.00;98976.31;5056115;28;19921;-38
2022/04/26 12:51:20;;;;;;;;;;;;;;;19.35;100.00;98982.91;5059461;28;19966;-37
2022/04/26 12:53:46;;;;;;;;;;;;;;;19.08;100.00;98989.03;5055603;28;19925;-37
2022/04/26 12:56:11;;;;;;;;;;;;;;;18.81;100.00;98989.94;5053846;28;19926;-37
2022/04/26 12:58:37;;;;;;;;;;;;;;;19.31;100.00;98989.28;5060938;28;19916;-37
2022/04/26 13:01:03;;;;;;;;;;;;;;;18.25;100.00;98986.63;5059277;28;20365;-37
2022/04/26 13:03:28;;;;;;;;;;;;;;;18.53;100.00;98996.09;5056734;28;20050;-37
2022/04/26 13:06:04;;;;;;;;;;;;;;;20.78;100.00;98976.22;5055347;28;20011;-37
2022/04/26 13:08:29;;;;;;;;;;;;;;;19.32;100.00;98996.19;5059546;28;19970;-37
2022/04/26 13:10:55;;;;;;;;;;;;;;;17.77;100.00;99007.81;5057757;28;19924;-37
2022/04/26 13:13:20;;;;;;;;;;;;;;;16.76;100.00;99007.72;5054573;28;19925;-37
2022/04/26 13:15:46;;;;;;;;;;;;;;;16.97;100.00;99011.75;5057501;28;20261;-37
2022/04/26 13:18:12;;;;;;;;;;;;;;;15.82;100.00;99025.88;5057711;28;20925;-37
2022/04/26 13:20:38;;;;;;;;;;;;;;;16.08;100.00;99024.50;5062255;28;19916;-37
2022/04/26 13:23:03;;;;;;;;;;;;;;;16.34;100.00;99025.66;5056101;28;19966;-37
2022/04/26 13:25:29;;;;;;;;;;;;;;;16.49;100.00;99017.03;5056300;28;20627;-37
2022/04/26 13:27:54;;;;;;;;;;;;;;;17.02;100.00;99017.50;5060574;28;20020;-37
2022/04/26 13:30:19;;;;;;;;;;;;;;;17.04;100.00;99023.47;5054616;28;19985;-37
2022/04/26 13:32:45;;;;;;;;;;;;;;;18.62;100.00;99014.72;5058291;28;19916;-37
2022/04/26 13:35:10;;;;;;;;;;;;;;;19.27;100.00;99024.34;5062246;28;19920;-37
2022/04/26 13:37:35;;;;;;;;;;;;;;;18.55;100.00;99019.50;5058791;28;19916;-37
2022/04/26 13:40:02;;;;;;;;;;;;;;;18.78;100.00;99031.06;5062215;28;19916;-37
2022/04/26 13:42:27;;;;;;;;;;;;;;;18.62;100.00;99030.38;5059661;28;19920;-37
2022/04/26 13:44:55;;;;;;;;;;;;;;;17.72;100.00;99027.25;5058356;28;19972;-37
2022/04/26 13:47:21;;;;;;;;;;;;;;;17.72;100.00;99033.31;5058282;28;20579;-37
2022/04/26 13:49:46;;;;;;;;;;;;;;;18.79;100.00;99028.38;5060855;28;19920;-37
2022/04/26 13:52:13;;;;;;;;;;;;;;;19.19;100.00;99020.50;5060201;28;19916;-37
2022/04/26 13:54:39;;;;;;;;;;;;;;;17.99;100.00;99027.34;5061002;28;19950;-37
2022/04/26 13:57:07;;;;;;;;;;;;;;;17.14;100.00;99027.19;5061643;28;20332;-37
2022/04/26 13:59:32;;;;;;;;;;;;;;;16.67;100.00;99035.94;5059381;28;19978;-37
2022/04/26 14:01:57;;;;;;;;;;;;;;;17.48;100.00;99027.81;5062034;28;20441;-37
2022/04/26 14:04:23;;;;;;;;;;;;;;;19.12;100.00;99015.78;5057004;28;19921;-37
2022/04/26 14:06:48;;;;;;;;;;;;;;;18.93;100.00;99018.78;5061269;28;19920;-37
2022/04/26 14:09:14;;;;;;;;;;;;;;;19.29;100.00;99014.66;5058310;28;19944;-37
2022/04/26 14:11:39;;;;;;;;;;;;;;;18.44;100.00;99019.34;5058819;28;20034;-37
2022/04/26 14:22:16;;;;;;;;;;;;;;;16.73;100.00;99025.19;5066253;28;19978;-37
2022/04/26 14:24:42;;;;;;;;;;;;;;;16.45;100.00;99028.50;5062852;28;19924;-37
2022/04/26 14:27:07;;;;;;;;;;;;;;;17.45;100.00;99028.00;5066307;28;20029;-37
2022/04/26 14:29:33;;;;;;;;;;;;;;;17.23;100.00;99027.59;5064749;28;19925;-37
2022/04/26 14:31:58;;;;;;;;;;;;;;;17.53;100.00;99032.72;5062514;28;19917;-37
2022/04/26 14:34:23;;;;;;;;;;;;;;;18.26;100.00;99024.78;5058897;28;20479;-37
2022/04/26 14:36:49;;;;;;;;;;;;;;;17.29;100.00;99035.06;5064582;28;20034;-37
2022/04/26 14:39:15;;;;;;;;;;;;;;;17.73;100.00;99034.97;5061269;28;19951;-37
2022/04/26 14:41:40;;;;;;;;;;;;;;;18.51;100.00;99028.44;5057085;28;19921;-37
2022/04/26 14:44:06;;;;;;;;;;;;;;;18.09;100.00;99028.47;5064047;28;19919;-37
2022/04/26 14:46:32;;;;;;;;;;;;;;;17.82;100.00;99028.41;5066136;28;19915;-37
2022/04/26 14:48:57;;;;;;;;;;;;;;;18.71;100.00;99035.81;5064090;28;19966;-37
2022/04/26 14:51:23;;;;;;;;;;;;;;;19.90;100.00;99020.91;5062445;28;19924;-37
2022/04/26 14:53:49;;;;;;;;;;;;;;;20.00;100.00;99019.31;5065104;28;19924;-37
2022/04/26 14:56:14;;;;;;;;;;;;;;;20.03;100.00;99032.16;5064613;28;19960;-37
2022/04/26 14:58:41;;;;;;;;;;;;;;;20.38;100.00;99026.19;5065526;28;19916;-37
2022/04/26 15:01:06;;;;;;;;;;;;;;;20.35;100.00;99031.66;5065245;28;19923;-37
2022/04/26 15:03:31;;;;;;;;;;;;;;;19.07;100.00;99042.19;5063464;28;19916;-37
2022/04/26 15:05:59;;;;;;;;;;;;;;;18.78;100.00;99052.78;5065396;28;19995;-37
2022/04/26 15:11:08;;;;;;;;;;;;;;;20.89;98.24;99049.56;5064323;28;19924;-37
2022/04/26 15:19:01;;;;;;;;;;;;;;;19.44;100.00;99060.63;5061565;28;19926;-37
2022/04/26 15:21:26;;;;;;;;;;;;;;;18.87;100.00;99055.72;5062225;28;20473;-37
2022/04/26 15:23:53;;;;;;;;;;;;;;;18.65;100.00;99061.47;5067218;28;19916;-37
2022/04/26 15:26:18;;;;;;;;;;;;;;;18.38;100.00;99049.22;5065852;28;20329;-37
2022/04/26 15:28:44;;;;;;;;;;;;;;;18.42;100.00;99045.50;5064768;28;19921;-37
2022/04/26 15:31:10;;;;;;;;;;;;;;;16.75;100.00;99055.47;5062122;28;20011;-37
2022/04/26 15:33:35;;;;;;;;;;;;;;;16.71;100.00;99065.22;5065090;28;20526;-37
2022/04/26 15:36:01;;;;;;;;;;;;;;;16.05;100.00;99077.44;5059453;28;19967;-37
2022/04/26 15:38:29;;;;;;;;;;;;;;;15.97;100.00;99073.59;5063274;28;20878;-37
2022/04/26 15:40:54;;;;;;;;;;;;;;;16.23;100.00;99061.78;5062305;28;20021;-37
2022/04/26 15:43:19;;;;;;;;;;;;;;;16.08;100.00;99071.28;5061101;28;20476;-37
2022/04/26 15:45:45;;;;;;;;;;;;;;;15.76;100.00;99063.41;5062598;28;20710;-37
2022/04/26 15:48:11;;;;;;;;;;;;;;;15.26;100.00;99072.00;5063506;28;19962;-36
2022/04/26 15:50:39;;;;;;;;;;;;;;;14.90;100.00;99072.06;5044435;28;20445;-36
2022/04/26 15:53:04;;;;;;;;;;;;;;;14.70;100.00;99066.06;5062278;28;19969;-36
2022/04/26 15:55:29;;;;;;;;;;;;;;;15.30;100.00;99081.28;5060555;28;19920;-36
2022/04/26 15:57:54;;;;;;;;;;;;;;;14.89;100.00;99078.97;5061106;28;19920;-37
2022/04/26 16:00:20;;;;;;;;;;;;;;;15.02;100.00;99090.44;5065041;28;19916;-36
2022/04/26 16:02:46;;;;;;;;;;;;;;;15.03;100.00;99083.53;5065283;28;19973;-36
2022/04/26 16:05:12;;;;;;;;;;;;;;;16.24;100.00;99084.28;5062285;28;19920;-36
2022/04/26 16:07:38;;;;;;;;;;;;;;;15.83;100.00;99087.31;5058918;28;19920;-36
2022/04/26 16:21:00;;;;;;;;;;;;;;;18.16;100.00;99088.88;5062715;28;19975;-36
2022/04/26 16:23:25;;;;;;;;;;;;;;;19.30;100.00;99089.44;5065879;28;20002;-36
2022/04/26 16:25:50;;;;;;;;;;;;;;;19.29;100.00;99099.03;5062612;28;19916;-36
2022/04/26 16:28:15;;;;;;;;;;;;;;;18.34;100.00;99111.19;5059515;28;19916;-36
2022/04/26 16:30:41;;;;;;;;;;;;;;;18.35;100.00;99112.84;5059871;28;19920;-36
2022/04/26 16:33:07;;;;;;;;;;;;;;;18.22;100.00;99109.31;5060399;28;19927;-36
2022/04/26 16:35:32;;;;;;;;;;;;;;;18.30;100.00;99099.25;5063730;28;19920;-36
2022/04/26 16:37:57;;;;;;;;;;;;;;;17.51;100.00;99105.72;5062778;28;19979;-37
2022/04/26 16:40:23;;;;;;;;;;;;;;;16.72;100.00;99106.75;5060119;28;19923;-37
2022/04/26 16:42:48;;;;;;;;;;;;;;;17.93;100.00;99106.75;5059309;28;19970;-37
2022/04/26 16:45:14;;;;;;;;;;;;;;;18.76;100.00;99109.41;5060756;28;19927;-37
2022/04/26 16:47:39;;;;;;;;;;;;;;;19.33;100.00;99116.19;5059551;28;19924;-37
2022/04/26 16:50:04;;;;;;;;;;;;;;;19.21;100.00;99117.81;5062590;28;19916;-37
2022/04/26 16:52:30;;;;;;;;;;;;;;;18.81;100.00;99130.00;5064113;28;19920;-37
2022/04/26 16:54:55;;;;;;;;;;;;;;;18.99;100.00;99128.00;5060841;28;19931;-37